createdAt,value
2023-03-22T00:02:04.553Z,91.77
2023-03-22T00:04:31.554Z,90.99
2023-03-22T00:06:58.207Z,90.94
2023-03-22T00:09:24.909Z,91.18
2023-03-22T00:11:51.555Z,91.06
2023-03-22T00:14:19.179Z,91.34
2023-03-22T00:16:49.452Z,91.33
2023-03-22T00:19:17.518Z,91.63
2023-03-22T00:21:44.768Z,92.22
2023-03-22T00:24:12.004Z,91.37
2023-03-22T00:26:38.964Z,91.07
2023-03-22T00:29:06.013Z,90.97
2023-03-22T00:31:34.220Z,91.04
2023-03-22T00:34:00.969Z,90.58
2023-03-22T00:36:27.704Z,90.50
2023-03-22T00:38:54.367Z,90.54
2023-03-22T00:41:23.527Z,89.79
2023-03-22T00:43:51.726Z,90.36
2023-03-22T00:46:20.890Z,90.63
2023-03-22T00:48:48.298Z,90.82
2023-03-22T00:51:15.747Z,91.47
2023-03-22T00:53:44.019Z,91.98
2023-03-22T00:56:15.884Z,92.18
2023-03-22T00:58:55.442Z,93.74
2023-03-22T01:01:22.317Z,93.33
2023-03-22T01:03:50.756Z,93.40
2023-03-22T01:06:18.020Z,94.41
2023-03-22T01:08:45.559Z,94.43
2023-03-22T01:11:12.952Z,93.66
2023-03-22T01:13:41.998Z,93.05
2023-03-22T01:16:10.109Z,92.08
2023-03-22T01:18:37.027Z,91.78
2023-03-22T01:21:04.335Z,91.60
2023-03-22T01:23:31.921Z,91.65
2023-03-22T01:25:58.995Z,92.12
2023-03-22T01:28:27.315Z,92.44
2023-03-22T01:30:55.799Z,92.90
2023-03-22T01:33:22.907Z,92.99
2023-03-22T01:35:51.065Z,92.61
2023-03-22T01:38:18.052Z,93.22
2023-03-22T01:41:02.661Z,92.96
2023-03-22T01:43:31.946Z,93.60
2023-03-22T01:45:59.359Z,93.70
2023-03-22T01:48:35.194Z,94.00
2023-03-22T01:51:07.224Z,94.03
2023-03-22T01:53:45.875Z,94.12
2023-03-22T01:56:13.435Z,94.58
2023-03-22T01:58:42.137Z,94.75
2023-03-22T02:01:11.629Z,94.28
2023-03-22T02:04:04.812Z,95.07
2023-03-22T02:06:32.483Z,95.14
2023-03-22T02:09:07.903Z,95.17
2023-03-22T02:11:41.719Z,95.42
2023-03-22T02:14:36.814Z,95.29
2023-03-22T02:17:59.702Z,95.05
2023-03-22T02:20:48.309Z,94.91
2023-03-22T02:23:21.186Z,94.99
2023-03-22T02:26:18.228Z,94.32
2023-03-22T02:28:47.811Z,93.95
2023-03-22T02:31:36.613Z,94.34
2023-03-22T02:34:48.304Z,95.56
2023-03-22T02:37:49.331Z,95.27
2023-03-22T02:40:18.647Z,95.29
2023-03-22T02:42:59.108Z,96.08
2023-03-22T02:45:34.891Z,95.84
2023-03-22T02:48:11.906Z,95.63
2023-03-22T02:50:46.604Z,95.15
2023-03-22T02:53:21.050Z,95.00
2023-03-22T02:56:04.294Z,94.86
2023-03-22T02:59:03.758Z,94.54
2023-03-22T03:01:56.296Z,94.04
2023-03-22T03:04:33.145Z,94.35
2023-03-22T03:07:09.385Z,94.63
2023-03-22T03:09:40.052Z,94.67
2023-03-22T03:12:18.706Z,94.26
2023-03-22T03:14:45.668Z,94.36
2023-03-22T03:17:38.023Z,94.88
2023-03-22T03:20:30.041Z,96.68
2023-03-22T03:23:13.842Z,97.63
2023-03-22T03:26:06.728Z,97.74
2023-03-22T03:28:47.725Z,98.20
2023-03-22T03:31:29.829Z,98.91
2023-03-22T03:34:05.542Z,99.36
2023-03-22T03:36:37.835Z,100.00
2023-03-22T03:39:07.823Z,100.00
2023-03-22T03:41:35.086Z,100.00
2023-03-22T03:44:03.771Z,100.00
2023-03-22T03:46:30.796Z,100.00
2023-03-22T03:48:58.552Z,100.00
2023-03-22T03:51:27.371Z,100.00
2023-03-22T03:53:54.098Z,100.00
2023-03-22T03:56:21.944Z,100.00
2023-03-22T03:58:49.864Z,100.00
2023-03-22T04:01:19.651Z,100.00
2023-03-22T04:04:09.570Z,100.00
2023-03-22T04:06:43.976Z,100.00
2023-03-22T04:09:16.232Z,100.00
2023-03-22T04:11:46.530Z,100.00
2023-03-22T04:14:14.603Z,100.00
2023-03-22T04:16:41.601Z,100.00
2023-03-22T04:19:11.628Z,100.00
2023-03-22T04:21:38.894Z,100.00
2023-03-22T04:24:06.746Z,100.00
2023-03-22T04:26:36.889Z,100.00
2023-03-22T04:29:16.307Z,100.00
2023-03-22T04:31:48.095Z,100.00
2023-03-22T04:34:29.316Z,100.00
2023-03-22T04:37:02.734Z,100.00
2023-03-22T04:39:53.369Z,100.00
2023-03-22T04:42:38.514Z,100.00
2023-03-22T04:45:29.271Z,100.00
2023-03-22T04:48:00.928Z,100.00
2023-03-22T04:50:28.268Z,100.00
2023-03-22T04:52:59.485Z,100.00
2023-03-22T04:55:27.718Z,100.00
2023-03-22T04:57:54.809Z,100.00
2023-03-22T05:00:24.019Z,100.00
2023-03-22T05:02:51.568Z,100.00
2023-03-22T05:05:29.157Z,100.00
2023-03-22T05:07:56.438Z,100.00
2023-03-22T05:10:24.296Z,100.00
2023-03-22T05:12:51.148Z,100.00
2023-03-22T05:15:22.366Z,100.00
2023-03-22T05:17:51.007Z,100.00
2023-03-22T05:20:17.737Z,100.00
2023-03-22T05:22:56.899Z,100.00
2023-03-22T05:25:25.846Z,100.00
2023-03-22T05:27:54.261Z,100.00
2023-03-22T05:30:35.011Z,100.00
2023-03-22T05:33:14.256Z,100.00
2023-03-22T05:35:45.485Z,100.00
2023-03-22T05:38:12.260Z,100.00
2023-03-22T05:40:45.009Z,100.00
2023-03-22T05:43:12.322Z,100.00
2023-03-22T05:45:43.516Z,100.00
2023-03-22T05:48:23.365Z,100.00
2023-03-22T05:50:50.190Z,100.00
2023-03-22T05:53:17.527Z,100.00
2023-03-22T05:56:00.842Z,100.00
2023-03-22T05:58:31.717Z,100.00
2023-03-22T06:01:13.183Z,100.00
2023-03-22T06:03:46.100Z,100.00
2023-03-22T06:06:20.582Z,100.00
2023-03-22T06:09:07.036Z,100.00
2023-03-22T06:11:41.426Z,100.00
2023-03-22T06:14:08.456Z,100.00
2023-03-22T06:16:53.822Z,100.00
2023-03-22T06:19:20.514Z,100.00
2023-03-22T06:21:47.769Z,100.00
2023-03-22T06:24:16.411Z,100.00
2023-03-22T06:26:43.083Z,100.00
2023-03-22T06:29:09.757Z,100.00
2023-03-22T06:31:36.961Z,100.00
2023-03-22T06:34:06.074Z,100.00
2023-03-22T06:36:39.210Z,100.00
2023-03-22T06:39:12.515Z,100.00
2023-03-22T06:41:42.955Z,99.01
2023-03-22T06:44:09.729Z,97.24
2023-03-22T06:46:59.219Z,95.28
2023-03-22T06:49:44.420Z,93.89
2023-03-22T06:52:17.703Z,92.04
2023-03-22T06:54:44.613Z,91.12
2023-03-22T06:57:11.722Z,89.60
2023-03-22T06:59:38.599Z,88.80
2023-03-22T07:02:05.314Z,84.49
2023-03-22T07:04:33.294Z,83.84
2023-03-22T07:06:59.987Z,83.72
2023-03-22T07:09:27.415Z,81.23
2023-03-22T07:11:57.638Z,81.53
2023-03-22T07:14:24.605Z,79.25
2023-03-22T07:16:58.488Z,77.52
2023-03-22T07:19:27.812Z,75.89
2023-03-22T07:21:55.407Z,76.55
2023-03-22T07:24:23.124Z,75.01
2023-03-22T07:26:50.346Z,74.33
2023-03-22T07:29:22.025Z,72.76
2023-03-22T07:31:49.211Z,72.11
2023-03-22T07:34:22.204Z,72.56
2023-03-22T07:37:11.630Z,69.42
2023-03-22T07:39:40.775Z,70.44
2023-03-22T07:42:07.558Z,69.78
2023-03-22T07:44:54.474Z,66.55
2023-03-22T07:47:39.502Z,67.78
2023-03-22T07:50:33.028Z,66.09
2023-03-22T07:53:04.030Z,66.68
2023-03-22T07:55:31.622Z,63.66
2023-03-22T07:57:58.264Z,65.23
2023-03-22T08:00:25.119Z,63.50
2023-03-22T08:03:14.592Z,61.69
2023-03-22T08:06:07.757Z,60.07
2023-03-22T08:08:36.991Z,59.07
2023-03-22T08:11:06.461Z,56.33
2023-03-22T08:13:33.727Z,57.30
2023-03-22T08:16:01.046Z,57.24
2023-03-22T08:18:27.892Z,58.07
2023-03-22T08:20:56.649Z,58.67
2023-03-22T08:23:40.455Z,57.47
2023-03-22T08:26:45.651Z,55.46
2023-03-22T08:29:20.812Z,55.40
2023-03-22T08:31:47.853Z,55.59
2023-03-22T08:34:14.608Z,54.76
2023-03-22T08:36:41.832Z,53.15
2023-03-22T08:39:09.563Z,53.38
2023-03-22T08:41:44.697Z,53.71
2023-03-22T08:44:11.510Z,52.15
2023-03-22T08:46:38.247Z,52.16
2023-03-22T08:49:05.013Z,50.84
2023-03-22T08:51:35.719Z,49.67
2023-03-22T08:54:16.733Z,51.54
2023-03-22T08:57:03.509Z,50.07
2023-03-22T09:00:06.826Z,50.52
2023-03-22T09:02:43.547Z,50.02
2023-03-22T09:05:10.507Z,49.19
2023-03-22T09:07:38.820Z,48.47
2023-03-22T09:10:12.297Z,49.69
2023-03-22T09:12:42.678Z,49.27
2023-03-22T09:15:10.408Z,48.10
2023-03-22T09:17:40.458Z,49.10
2023-03-22T09:20:12.787Z,49.23
2023-03-22T09:22:41.981Z,48.65
2023-03-22T09:25:12.626Z,47.83
2023-03-22T09:27:42.104Z,47.98
2023-03-22T09:30:09.259Z,48.72
2023-03-22T09:32:36.052Z,47.87
2023-03-22T09:35:04.727Z,47.74
2023-03-22T09:37:39.314Z,47.98
2023-03-22T09:40:07.912Z,46.54
2023-03-22T09:42:51.285Z,47.33
2023-03-22T09:45:32.245Z,46.85
2023-03-22T09:47:59.725Z,47.08
2023-03-22T09:50:29.986Z,47.00
2023-03-22T09:52:57.780Z,46.04
2023-03-22T09:55:41.866Z,44.18
2023-03-22T09:58:29.709Z,45.11
2023-03-22T10:00:59.524Z,46.25
2023-03-22T10:03:43.983Z,46.13
2023-03-22T10:06:22.832Z,45.38
2023-03-22T10:09:04.702Z,46.91
2023-03-22T10:12:16.925Z,44.43
2023-03-22T10:14:51.676Z,44.74
2023-03-22T10:17:23.524Z,45.52
2023-03-22T10:20:05.473Z,44.83
2023-03-22T10:22:40.786Z,45.87
2023-03-22T10:25:09.501Z,44.61
2023-03-22T10:27:37.424Z,43.64
2023-03-22T10:30:18.260Z,42.52
2023-03-22T10:33:12.219Z,40.67
2023-03-22T10:35:39.323Z,41.20
2023-03-22T10:38:09.509Z,41.97
2023-03-22T10:40:37.562Z,42.14
2023-03-22T10:43:15.926Z,40.35
2023-03-22T10:45:43.370Z,40.50
2023-03-22T10:48:30.317Z,40.55
2023-03-22T10:50:58.931Z,40.35
2023-03-22T10:53:45.679Z,41.77
2023-03-22T10:56:19.004Z,40.13
2023-03-22T10:58:46.379Z,39.81
2023-03-22T11:01:25.517Z,39.56
2023-03-22T11:03:57.121Z,39.78
2023-03-22T11:06:29.905Z,38.96
2023-03-22T11:09:23.977Z,39.64
2023-03-22T11:11:56.806Z,39.01
2023-03-22T11:14:31.822Z,38.76
2023-03-22T11:17:02.575Z,37.29
2023-03-22T11:19:34.068Z,38.86
2023-03-22T11:22:02.750Z,39.55
2023-03-22T11:24:32.039Z,38.65
2023-03-22T11:27:29.655Z,38.32
2023-03-22T11:30:21.739Z,36.34
2023-03-22T11:32:49.478Z,38.72
2023-03-22T11:35:17.817Z,38.65
2023-03-22T11:37:47.501Z,40.56
2023-03-22T11:40:20.468Z,39.59
2023-03-22T11:42:49.396Z,38.53
2023-03-22T11:45:25.696Z,39.57
2023-03-22T11:47:53.018Z,40.72
2023-03-22T11:50:27.922Z,40.04
2023-03-22T11:52:54.974Z,39.96
2023-03-22T11:55:21.695Z,40.75
2023-03-22T11:57:50.280Z,40.11
2023-03-22T12:00:22.076Z,38.39
2023-03-22T12:02:50.372Z,39.01
2023-03-22T12:05:27.341Z,37.68
2023-03-22T12:08:17.451Z,37.15
2023-03-22T12:10:48.226Z,36.95
2023-03-22T12:13:25.598Z,36.01
2023-03-22T12:16:00.953Z,36.77
2023-03-22T12:18:38.872Z,35.49
2023-03-22T12:21:05.863Z,36.86
2023-03-22T12:23:37.543Z,38.21
2023-03-22T12:26:16.391Z,38.61
2023-03-22T12:29:05.048Z,39.41
2023-03-22T12:31:44.546Z,41.13
2023-03-22T12:34:21.176Z,41.58
2023-03-22T12:36:52.620Z,41.95
2023-03-22T12:39:35.181Z,43.11
2023-03-22T12:42:21.961Z,43.00
2023-03-22T12:45:04.058Z,42.00
2023-03-22T12:47:51.240Z,43.00
2023-03-22T12:50:28.891Z,43.65
2023-03-22T12:52:57.054Z,42.53
2023-03-22T12:55:33.755Z,42.32
2023-03-22T12:58:00.743Z,41.98
2023-03-22T13:00:36.523Z,40.59
2023-03-22T13:03:18.743Z,41.32
2023-03-22T13:05:58.735Z,41.66
2023-03-22T13:08:25.591Z,42.19
2023-03-22T13:11:03.198Z,42.78
2023-03-22T13:13:29.786Z,41.92
2023-03-22T13:16:02.580Z,41.14
2023-03-22T13:18:35.685Z,40.47
2023-03-22T13:21:32.561Z,39.51
2023-03-22T13:24:10.212Z,38.25
2023-03-22T13:26:47.678Z,38.59
2023-03-22T13:29:32.713Z,38.15
2023-03-22T13:32:06.077Z,38.79
2023-03-22T13:34:48.804Z,39.44
2023-03-22T13:37:31.180Z,39.55
2023-03-22T13:40:02.397Z,39.58
2023-03-22T13:42:37.974Z,39.47
2023-03-22T13:45:09.914Z,39.37
2023-03-22T13:47:46.898Z,38.81
2023-03-22T13:50:22.530Z,39.30
2023-03-22T13:52:59.687Z,39.43
2023-03-22T13:55:46.887Z,39.53
2023-03-22T13:58:44.731Z,38.16
2023-03-22T14:01:21.162Z,36.88
2023-03-22T14:03:50.366Z,36.86
2023-03-22T14:06:35.328Z,37.21
2023-03-22T14:09:20.917Z,37.21
2023-03-22T14:11:57.022Z,36.71
2023-03-22T14:14:29.925Z,34.81
2023-03-22T14:17:13.292Z,35.93
2023-03-22T14:19:42.052Z,36.12
